Terminal Aerodrome Forecast
Issued by NWS

Home | Current Version | Previous Version | Text Only | Print | Product List | Glossary On
Versions: 1 2 3 4 5 6 7 8 9 10 11 12 13 14 15 16 17 18 19 20 21 22 23 24 25 26 27 28
000
FTUS44 KOUN 020318 AAA
TAFPNC
TAF AMD
KPNC 020318Z 0203/0224 17013KT P6SM SCT050 BKN150
      TEMPO 0205/0208 4SM -TSRA BR BKN035CB
     FM021300 17010G15KT P6SM SCT040 PROB30 0213/0218 P6SM -TSRA
      BKN040CB=

USA.gov is the U.S. government's official web portal to all federal, state and local government web resources and services.